الصفحة الرئيسية
METAR-TAF:

METAR-TAF

مطار :

كراتشي, باكستان

مطار جناح الدولي

دائرة عرض: 24-54N, خط طول: 067-08E, ارتفاع: 21 متر

مراقبة الطقس الحالي

تاريخ ووقت الإصدار 11 دقيقة قبل الساعة 02:55UTC
رياح هادئة
درجة الحرارة 26°درجة مئوية
الرطوبة 32%
ضغط 1012 hPa
الرؤية: 5000 متر
العجاج

METAR: OPKC 220255Z 00000KT 5000 HZ NSC 26/08 Q1012 NOSIG

زمن: 08:06 (03:06 UTC)

توقعات

تاريخ ووقت الإصدار 2ساعات و 36 دقيقة قبل الساعة 00:30UTC
التوقعات صالحة من22 الساعة 03 UTC إلى 22 الساعة 12 UTC
ريح 8 عقدة من الشمال الشرقي
الرؤية: 5000 متر
العجاج
أصبح
من 22 الساعة 08 UTC إلى 22 الساعة 10 UTC
ريح 8 عقدة من الغرب
الرؤية: 6000 متر

TAF: OPKC 220030Z 2203/2212 05008KT 5000 HZ NSC BECMG 2208/2210 28008KT 6000 NSC

أرصاد الطقس والتوقعات من أكثر من 4000 مطار (تقارير الطقس للمطار METAR والتنبؤ بالطقس بالمطارTAF).

المحطات المتاحة هي النقط الصفراء والحمراء على الخريطة.

حرك المؤشر فوق النقطة لمعرفة اسم المحطة.

ثم انقر لمعرفة أرصاد وتوقعات الطقس.

لتغيير الخارطة: اضغط على الأزرار الخضراء مع رمز الصليب الأسود للتكبير. على الزر الأخضر مع شرطة للتصغير، أو على الأسهم الخضراء للخرائط المجاورة.


METAR-TAF: